Time;durP1;ratioP1;P1;durP2;ratioP2;P2;SDS_P1;SDS_P2;PMS_P1;PMS_P2;Temp;Humidity;BMP_temperature;BMP_pressure;BME280_temperature;BME280_humidity;BME280_pressure;Samples;Min_cycle;Max_cycle;Signal;HPM_P1;HPM_P2
2022/06/11 00:01:19;;;;;;;4.22;2.30;;;12.00;99.90;;;;;;5064133;28;20111;-32
2022/06/11 00:03:46;;;;;;;2.63;2.42;;;11.90;99.90;;;;;;5072206;28;20085;-32
2022/06/11 00:06:12;;;;;;;2.30;2.10;;;11.90;99.90;;;;;;5072791;28;20427;-32
2022/06/11 00:08:38;;;;;;;2.67;2.08;;;12.00;99.90;;;;;;5077841;28;20016;-32
2022/06/11 00:11:06;;;;;;;5.05;2.50;;;12.10;99.90;;;;;;5072830;28;20042;-33
2022/06/11 00:13:32;;;;;;;2.58;2.05;;;12.20;99.90;;;;;;5064564;28;20127;-32
2022/06/11 00:16:01;;;;;;;2.72;2.22;;;12.30;99.90;;;;;;5071555;28;20032;-32
2022/06/11 00:18:28;;;;;;;2.45;2.00;;;12.40;99.90;;;;;;5064007;28;20035;-32
2022/06/11 00:20:53;;;;;;;2.35;2.15;;;12.40;99.90;;;;;;5065516;28;20416;-32
2022/06/11 00:23:19;;;;;;;3.25;2.75;;;11.90;99.90;;;;;;5066932;28;20032;-32
2022/06/11 00:25:47;;;;;;;2.88;2.58;;;11.70;99.90;;;;;;5073035;28;20040;-32
2022/06/11 00:28:13;;;;;;;2.20;2.00;;;11.90;99.90;;;;;;5064897;28;20130;-32
2022/06/11 00:30:39;;;;;;;2.85;2.03;;;12.10;99.90;;;;;;5066838;28;20158;-32
2022/06/11 00:33:06;;;;;;;4.43;2.38;;;12.20;99.90;;;;;;5075710;28;20103;-32
2022/06/11 00:35:34;;;;;;;2.47;2.28;;;12.30;99.90;;;;;;5070374;28;20028;-32
2022/06/11 00:38:00;;;;;;;2.63;2.08;;;12.00;99.90;;;;;;5069473;28;20036;-32
2022/06/11 00:40:28;;;;;;;4.18;2.80;;;11.70;99.90;;;;;;5066198;28;20047;-32
2022/06/11 00:42:54;;;;;;;;;;;11.70;99.90;;;;;;5069580;28;20029;-32
2022/06/11 00:45:25;;;;;;;3.50;2.30;;;11.90;99.90;;;;;;5065935;28;19966;-32
2022/06/11 00:48:00;;;;;;;3.03;2.25;;;12.00;99.90;;;;;;5071296;28;20033;-32
2022/06/11 00:50:29;;;;;;;2.70;2.50;;;12.10;99.90;;;;;;5063850;28;20016;-32
2022/06/11 00:52:57;;;;;;;4.03;2.70;;;12.10;99.90;;;;;;5067702;28;20032;-32
2022/06/11 00:55:30;;;;;;;;;;;12.10;99.90;;;;;;5070095;28;20032;-32
2022/06/11 00:58:07;;;;;;;5.78;3.05;;;12.10;99.90;;;;;;5057160;28;19916;-32
2022/06/11 01:00:41;;;;;;;4.63;2.90;;;12.00;99.90;;;;;;5064783;28;20034;-32
2022/06/11 01:03:13;;;;;;;3.28;2.45;;;11.60;99.90;;;;;;5074890;28;20525;-32
2022/06/11 01:05:44;;;;;;;1.70;1.60;;;11.50;99.90;;;;;;5072772;28;20739;-32
2022/06/11 01:08:21;;;;;;;3.00;2.35;;;11.30;99.90;;;;;;5073531;28;20431;-32
2022/06/11 01:11:22;;;;;;;2.38;2.17;;;11.10;99.90;;;;;;5063255;28;20020;-32
2022/06/11 01:13:53;;;;;;;2.33;1.92;;;11.20;99.90;;;;;;5067008;28;20112;-32
2022/06/11 01:16:24;;;;;;;2.92;2.25;;;11.20;99.90;;;;;;5065544;28;20327;-32
2022/06/11 01:19:01;;;;;;;3.20;2.63;;;11.10;99.90;;;;;;5063030;28;20035;-32
2022/06/11 01:21:27;;;;;;;2.20;2.00;;;11.20;99.90;;;;;;5069239;28;20058;-32
2022/06/11 01:24:05;;;;;;;2.22;2.10;;;11.20;99.90;;;;;;5063533;28;20032;-32
2022/06/11 01:26:52;;;;;;;3.38;2.15;;;11.30;99.90;;;;;;5058688;28;20411;-33
2022/06/11 01:29:49;;;;;;;4.00;2.17;;;11.30;99.90;;;;;;5070728;28;20085;-32
2022/06/11 01:32:33;;;;;;;2.30;2.10;;;11.40;99.90;;;;;;5068109;28;20036;-32
2022/06/11 01:35:23;;;;;;;2.53;1.90;;;11.40;99.90;;;;;;5068707;28;20037;-32
2022/06/11 01:38:15;;;;;;;3.63;2.20;;;11.20;99.90;;;;;;5078452;28;20640;-32
2022/06/11 01:41:05;;;;;;;1.98;1.75;;;11.00;99.90;;;;;;5064188;28;20413;-32
2022/06/11 01:43:39;;;;;;;2.33;1.90;;;10.70;99.90;;;;;;5066939;28;20028;-33
2022/06/11 01:46:12;;;;;;;1.65;1.55;;;10.50;99.90;;;;;;5061519;28;20036;-31
2022/06/11 01:48:51;;;;;;;1.80;1.70;;;10.30;99.90;;;;;;5070228;28;20432;-33
2022/06/11 01:51:27;;;;;;;;;;;10.20;99.90;;;;;;5069162;28;20033;-31
2022/06/11 01:53:59;;;;;;;2.00;1.80;;;10.20;99.90;;;;;;5064253;28;19987;-31
2022/06/11 01:56:47;;;;;;;1.63;1.52;;;10.30;99.90;;;;;;5068893;28;20025;-32
2022/06/11 01:59:26;;;;;;;1.73;1.63;;;10.50;99.90;;;;;;5071689;28;22317;-32
2022/06/11 02:02:01;;;;;;;2.63;1.92;;;10.60;99.90;;;;;;5073761;28;20032;-33
2022/06/11 02:04:55;;;;;;;3.22;2.45;;;10.40;99.90;;;;;;5069017;28;20538;-32
2022/06/11 02:07:42;;;;;;;2.35;1.92;;;10.50;99.90;;;;;;5061180;28;20420;-32
2022/06/11 02:10:33;;;;;;;2.93;2.20;;;10.70;99.90;;;;;;5061673;28;20025;-31
2022/06/11 02:13:05;;;;;;;2.55;2.05;;;10.70;99.90;;;;;;5055500;28;20401;-32
2022/06/11 02:15:39;;;;;;;2.55;2.13;;;10.70;99.90;;;;;;5072184;28;20469;-32
2022/06/11 02:18:10;;;;;;;3.97;2.53;;;10.60;99.90;;;;;;5067294;28;20103;-32
2022/06/11 02:20:41;;;;;;;2.78;2.38;;;10.60;99.90;;;;;;5082314;28;20047;-32
2022/06/11 02:23:24;;;;;;;3.00;2.38;;;10.60;99.90;;;;;;5068651;28;20043;-32
2022/06/11 02:25:53;;;;;;;2.60;2.22;;;10.60;99.90;;;;;;5069368;28;20078;-31
2022/06/11 02:28:24;;;;;;;2.83;2.45;;;10.70;99.90;;;;;;5065623;28;20044;-32
2022/06/11 02:30:52;;;;;;;4.13;2.40;;;10.60;99.90;;;;;;5071554;28;20512;-31
2022/06/11 02:33:19;;;;;;;2.23;1.93;;;10.70;99.90;;;;;;5070283;28;20040;-33
2022/06/11 02:36:12;;;;;;;3.00;2.28;;;10.80;99.90;;;;;;5066579;28;20040;-32
2022/06/11 02:38:39;;;;;;;2.50;2.30;;;10.90;99.90;;;;;;5073708;28;20028;-32
2022/06/11 02:41:10;;;;;;;2.53;2.17;;;10.90;99.90;;;;;;5073508;28;20406;-33
2022/06/11 02:43:36;;;;;;;3.25;2.05;;;11.00;99.90;;;;;;5072783;28;20028;-33
2022/06/11 02:46:41;;;;;;;2.67;2.15;;;10.90;99.90;;;;;;5076741;28;20043;-32
2022/06/11 02:48:51;;;;;;;2.25;2.03;;;10.90;99.90;;;;;;5062708;28;20028;-32
2022/06/11 02:51:19;;;;;;;2.53;2.20;;;11.00;99.90;;;;;;5064182;28;20023;-32
2022/06/11 02:53:44;;;;;;;2.83;2.10;;;10.80;99.90;;;;;;5065464;28;20060;-32
2022/06/11 02:56:11;;;;;;;4.22;2.38;;;10.70;99.90;;;;;;5078121;28;20071;-33
2022/06/11 02:58:37;;;;;;;3.25;2.42;;;10.70;99.90;;;;;;5068500;28;20540;-32
2022/06/11 03:01:04;;;;;;;4.75;2.70;;;10.80;99.90;;;;;;5065060;28;20119;-32
2022/06/11 03:03:29;;;;;;;2.55;2.33;;;10.90;99.90;;;;;;5068115;28;20077;-32
2022/06/11 03:05:57;;;;;;;4.25;2.38;;;10.90;99.90;;;;;;5075685;28;20032;-32
2022/06/11 03:08:23;;;;;;;2.40;2.20;;;10.90;99.90;;;;;;5070623;28;20020;-32
2022/06/11 03:10:54;;;;;;;3.33;2.40;;;10.90;99.90;;;;;;5067739;28;20862;-32
2022/06/11 03:13:30;;;;;;;2.45;1.98;;;10.80;99.90;;;;;;5071779;28;20032;-32
2022/06/11 03:15:57;;;;;;;2.10;1.92;;;10.50;99.90;;;;;;5078689;28;20043;-32
2022/06/11 03:18:23;;;;;;;2.42;1.60;;;10.30;99.90;;;;;;5071958;28;20045;-31
2022/06/11 03:20:50;;;;;;;1.55;1.45;;;10.10;99.90;;;;;;5063203;28;20071;-33
2022/06/11 03:23:17;;;;;;;2.45;1.92;;;10.20;99.90;;;;;;5066616;28;20028;-33
2022/06/11 03:25:43;;;;;;;2.60;1.90;;;10.40;99.90;;;;;;5065972;28;20116;-32
2022/06/11 03:28:14;;;;;;;2.53;2.30;;;10.20;99.90;;;;;;5071206;28;20029;-32
2022/06/11 03:30:40;;;;;;;3.17;2.20;;;10.10;99.90;;;;;;5075490;28;20043;-31
2022/06/11 03:33:06;;;;;;;2.85;2.63;;;10.20;99.90;;;;;;5075829;28;20036;-31
2022/06/11 03:35:33;;;;;;;2.53;2.33;;;10.20;99.90;;;;;;5067876;28;20073;-31
2022/06/11 03:37:59;;;;;;;3.88;2.30;;;10.30;99.90;;;;;;5073630;28;20024;-32
2022/06/11 03:40:25;;;;;;;2.63;2.40;;;10.40;99.90;;;;;;5069637;28;20050;-32
2022/06/11 03:42:51;;;;;;;2.58;2.38;;;10.60;99.90;;;;;;5070630;28;20037;-32
2022/06/11 03:45:17;;;;;;;4.40;2.78;;;10.60;99.90;;;;;;5070089;28;20489;-32
2022/06/11 03:47:43;;;;;;;3.13;2.33;;;10.70;99.90;;;;;;5067681;28;20065;-32
2022/06/11 03:50:24;;;;;;;4.97;2.20;;;10.80;99.90;;;;;;5078950;28;20106;-32
2022/06/11 03:52:49;;;;;;;2.00;1.90;;;10.90;99.90;;;;;;5068970;28;20012;-33
2022/06/11 03:55:15;;;;;;;2.58;2.38;;;11.00;99.90;;;;;;5070169;28;20039;-32
2022/06/11 03:57:41;;;;;;;4.13;2.17;;;10.90;99.90;;;;;;5072508;28;20470;-32
2022/06/11 04:00:11;;;;;;;2.42;2.17;;;10.90;99.90;;;;;;5071140;28;20029;-32
2022/06/11 04:02:37;;;;;;;2.97;2.28;;;10.70;99.90;;;;;;5065425;28;20036;-32
2022/06/11 04:05:04;;;;;;;2.40;2.00;;;10.70;99.90;;;;;;5069069;28;20077;-32
2022/06/11 04:07:31;;;;;;;2.55;2.30;;;10.70;99.90;;;;;;5066473;28;20033;-32
2022/06/11 04:09:57;;;;;;;3.45;2.55;;;10.90;99.90;;;;;;5065358;28;20432;-32
2022/06/11 04:12:23;;;;;;;2.67;2.28;;;11.00;99.90;;;;;;5066216;28;20017;-31
2022/06/11 04:14:49;;;;;;;3.60;2.47;;;11.10;99.90;;;;;;5068931;28;20039;-33
2022/06/11 04:17:22;;;;;;;2.22;2.03;;;11.20;99.90;;;;;;5072174;28;20051;-32
2022/06/11 04:19:50;;;;;;;3.63;2.33;;;11.30;99.90;;;;;;5067698;28;20035;-32
2022/06/11 04:22:16;;;;;;;2.83;2.40;;;11.30;99.90;;;;;;5065703;28;20037;-32
2022/06/11 04:24:43;;;;;;;3.65;2.28;;;11.40;99.90;;;;;;5068223;28;20294;-33
2022/06/11 04:27:11;;;;;;;3.50;2.17;;;11.30;99.90;;;;;;5067464;28;20066;-32
2022/06/11 04:29:42;;;;;;;2.92;2.53;;;11.40;99.90;;;;;;5070651;28;20405;-33
2022/06/11 04:32:09;;;;;;;2.83;2.50;;;11.50;99.90;;;;;;5073865;28;20489;-31
2022/06/11 04:34:37;;;;;;;2.90;2.67;;;11.50;99.90;;;;;;5072618;28;20517;-31
2022/06/11 04:37:03;;;;;;;2.55;2.35;;;11.60;99.90;;;;;;5068685;28;20093;-31
2022/06/11 04:39:31;;;;;;;3.10;2.28;;;11.70;99.90;;;;;;5073068;28;20040;-32
2022/06/11 04:41:58;;;;;;;2.40;2.20;;;11.90;99.90;;;;;;5062536;28;20036;-32
2022/06/11 04:44:24;;;;;;;2.47;2.13;;;12.10;99.90;;;;;;5068053;28;20032;-32
2022/06/11 04:46:51;;;;;;;3.08;2.28;;;12.20;99.90;;;;;;5070691;28;20037;-32
2022/06/11 04:49:17;;;;;;;2.47;2.28;;;12.20;99.90;;;;;;5067651;28;20025;-33
2022/06/11 04:51:44;;;;;;;3.55;2.40;;;12.30;99.90;;;;;;5071744;28;20608;-31
2022/06/11 04:54:10;;;;;;;3.10;2.80;;;12.40;99.90;;;;;;5066849;28;20116;-32
2022/06/11 04:56:36;;;;;;;3.42;2.72;;;12.50;99.90;;;;;;5070505;28;20125;-32
2022/06/11 04:59:02;;;;;;;3.55;2.50;;;12.60;99.90;;;;;;5072704;28;20737;-31
2022/06/11 05:01:28;;;;;;;5.00;2.70;;;12.70;99.90;;;;;;5069468;28;20501;-32
2022/06/11 05:03:54;;;;;;;3.55;2.67;;;12.70;99.90;;;;;;5067969;28;20032;-32
2022/06/11 05:06:23;;;;;;;2.60;2.40;;;12.70;99.90;;;;;;5074489;28;20043;-32
2022/06/11 05:08:49;;;;;;;3.10;2.80;;;12.70;99.90;;;;;;5067119;28;20025;-32
2022/06/11 05:11:14;;;;;;;3.72;3.08;;;12.80;99.90;;;;;;5062074;28;20025;-32
2022/06/11 05:13:40;;;;;;;3.03;2.72;;;12.80;99.90;;;;;;5065933;28;20080;-31
2022/06/11 05:16:06;;;;;;;2.90;2.65;;;12.90;99.90;;;;;;5066365;28;20033;-31
2022/06/11 05:18:33;;;;;;;4.25;3.20;;;13.10;99.90;;;;;;5067235;28;20043;-32
2022/06/11 05:20:59;;;;;;;4.63;2.70;;;13.30;99.90;;;;;;5069464;28;20087;-32
2022/06/11 05:23:25;;;;;;;4.78;2.92;;;13.20;99.90;;;;;;5072539;28;20101;-32
2022/06/11 05:25:50;;;;;;;3.40;2.88;;;13.40;99.90;;;;;;5070503;28;20044;-32
2022/06/11 05:28:23;;;;;;;5.18;2.92;;;13.60;99.90;;;;;;5074428;28;20103;-32
2022/06/11 05:30:49;;;;;;;2.90;2.58;;;13.80;99.90;;;;;;5074845;28;20037;-33
2022/06/11 05:33:15;;;;;;;4.00;2.97;;;14.10;99.90;;;;;;5072399;28;20027;-32
2022/06/11 05:35:42;;;;;;;3.70;2.63;;;14.30;99.90;;;;;;5065319;28;20020;-32
2022/06/11 05:38:18;;;;;;;3.25;2.60;;;14.40;99.90;;;;;;5075710;28;20107;-32
2022/06/11 05:40:47;;;;;;;3.08;2.80;;;14.50;99.90;;;;;;5074817;28;20043;-32
2022/06/11 05:43:13;;;;;;;;;;;14.60;99.90;;;;;;5062195;28;20072;-32
2022/06/11 05:45:49;;;;;;;3.28;2.97;;;14.70;99.90;;;;;;5070534;28;20032;-32
2022/06/11 05:48:18;;;;;;;4.00;3.10;;;14.90;99.90;;;;;;5076654;28;20504;-32
2022/06/11 05:50:47;;;;;;;4.90;3.20;;;15.00;99.90;;;;;;5070514;28;20508;-33
2022/06/11 05:53:16;;;;;;;4.13;2.97;;;14.90;99.90;;;;;;5075790;28;20046;-31
2022/06/11 05:55:44;;;;;;;3.42;3.00;;;15.00;99.90;;;;;;5073136;28;20029;-32
2022/06/11 05:58:14;;;;;;;4.53;3.40;;;15.20;99.90;;;;;;5069965;28;20039;-32
2022/06/11 06:00:40;;;;;;;3.20;2.90;;;15.20;99.90;;;;;;5078231;28;20139;-31
2022/06/11 06:03:06;;;;;;;4.78;2.88;;;15.30;99.90;;;;;;5076916;28;20035;-31
2022/06/11 06:05:32;;;;;;;3.78;3.42;;;15.20;99.90;;;;;;5071219;28;20032;-32
2022/06/11 06:07:58;;;;;;;3.92;2.88;;;15.50;99.90;;;;;;5067122;28;20025;-31
2022/06/11 06:10:25;;;;;;;5.70;3.45;;;15.60;99.90;;;;;;5065545;28;20631;-31
2022/06/11 06:12:51;;;;;;;6.53;3.33;;;15.90;99.90;;;;;;5074570;28;20032;-32
2022/06/11 06:15:23;;;;;;;4.20;3.28;;;16.20;99.90;;;;;;5077712;28;20029;-31
2022/06/11 06:17:49;;;;;;;3.58;3.20;;;16.10;99.90;;;;;;5073099;28;20029;-32
2022/06/11 06:20:16;;;;;;;4.40;3.95;;;16.00;99.90;;;;;;5069512;28;20040;-31
2022/06/11 06:22:42;;;;;;;3.58;3.05;;;16.10;99.90;;;;;;5074924;28;20040;-32
2022/06/11 06:25:11;;;;;;;5.90;3.13;;;16.60;99.90;;;;;;5076071;28;20037;-32
2022/06/11 06:27:37;;;;;;;4.57;3.17;;;16.70;99.90;;;;;;5071873;28;20024;-31
2022/06/11 06:30:04;;;;;;;5.25;3.40;;;16.70;99.90;;;;;;5068122;28;20570;-33
2022/06/11 06:32:30;;;;;;;6.00;3.40;;;16.90;99.90;;;;;;5074358;28;20100;-32
2022/06/11 06:34:55;;;;;;;5.60;3.30;;;17.00;99.90;;;;;;5065913;28;20032;-32
2022/06/11 06:37:21;;;;;;;4.43;3.63;;;17.20;99.90;;;;;;5067663;28;20035;-31
2022/06/11 06:39:46;;;;;;;5.13;3.15;;;17.20;99.90;;;;;;5067449;28;20028;-31
2022/06/11 06:42:12;;;;;;;3.40;2.80;;;17.30;99.60;;;;;;5066943;28;20032;-32
2022/06/11 06:44:38;;;;;;;2.83;2.53;;;17.40;99.90;;;;;;5069903;28;20510;-32
2022/06/11 06:47:04;;;;;;;5.65;3.28;;;17.60;99.90;;;;;;5064934;28;20035;-32
2022/06/11 06:49:29;;;;;;;4.60;2.83;;;17.80;99.90;;;;;;5063391;28;20433;-31
2022/06/11 06:51:55;;;;;;;3.58;2.70;;;17.90;98.50;;;;;;5064001;28;20040;-33
2022/06/11 06:54:21;;;;;;;4.40;2.80;;;18.10;99.50;;;;;;5069379;28;20031;-32
2022/06/11 06:56:47;;;;;;;2.83;2.55;;;18.20;97.40;;;;;;5061323;28;20024;-32
2022/06/11 06:59:13;;;;;;;3.80;3.28;;;18.10;96.00;;;;;;5062539;28;20031;-32
2022/06/11 07:01:39;;;;;;;3.92;2.83;;;18.00;96.20;;;;;;5069755;28;20036;-32
2022/06/11 07:04:05;;;;;;;3.67;3.28;;;18.20;99.70;;;;;;5069055;28;20037;-32
2022/06/11 07:06:32;;;;;;;3.45;3.15;;;18.40;99.60;;;;;;5066681;28;20532;-31
2022/06/11 07:08:58;;;;;;;3.90;3.50;;;18.70;98.60;;;;;;5070921;28;20101;-31
2022/06/11 07:11:24;;;;;;;3.47;2.80;;;18.90;99.90;;;;;;5071683;28;20032;-34
2022/06/11 07:13:50;;;;;;;3.00;2.70;;;19.30;98.90;;;;;;5070974;28;20040;-32
2022/06/11 07:16:21;;;;;;;4.60;2.95;;;19.60;98.70;;;;;;5065664;28;20036;-32
2022/06/11 07:18:51;;;;;;;3.63;3.00;;;19.70;97.30;;;;;;5067950;28;20028;-31
2022/06/11 07:21:21;;;;;;;6.07;2.90;;;19.70;95.20;;;;;;5058522;28;20081;-32
2022/06/11 07:23:54;;;;;;;4.95;2.97;;;20.00;96.20;;;;;;5069170;28;20393;-32
2022/06/11 07:26:26;;;;;;;3.85;2.72;;;19.60;94.80;;;;;;5066695;28;20480;-32
2022/06/11 07:28:57;;;;;;;3.33;2.40;;;19.90;96.20;;;;;;5069412;28;20489;-32
2022/06/11 07:31:23;;;;;;;2.92;2.53;;;20.10;92.10;;;;;;5068742;28;20511;-33
2022/06/11 07:33:49;;;;;;;3.13;2.42;;;20.40;93.40;;;;;;5066742;28;20077;-32
2022/06/11 07:36:16;;;;;;;2.53;2.33;;;20.50;91.60;;;;;;5073106;28;20459;-32
2022/06/11 07:38:42;;;;;;;3.35;2.10;;;20.80;88.60;;;;;;5067125;28;20020;-33
2022/06/11 07:41:08;;;;;;;2.55;2.35;;;21.00;85.10;;;;;;5064934;28;20032;-32
2022/06/11 07:43:33;;;;;;;7.78;2.28;;;21.10;76.70;;;;;;5072566;28;20025;-32
2022/06/11 07:45:59;;;;;;;2.70;2.50;;;21.40;87.70;;;;;;5074285;28;20036;-33
2022/06/11 07:48:25;;;;;;;2.50;2.30;;;21.10;70.20;;;;;;5064860;28;20025;-32
2022/06/11 07:50:52;;;;;;;5.18;2.30;;;21.10;73.20;;;;;;5069401;28;20051;-32
2022/06/11 07:53:19;;;;;;;2.55;2.20;;;21.20;69.70;;;;;;5060284;28;20085;-32
2022/06/11 07:55:47;;;;;;;2.20;2.00;;;21.20;73.50;;;;;;5064334;28;20032;-33
2022/06/11 07:58:16;;;;;;;3.05;2.03;;;21.50;70.30;;;;;;5067113;28;20045;-32
2022/06/11 08:00:45;;;;;;;2.85;2.00;;;21.70;73.10;;;;;;5060265;28;20070;-32
2022/06/11 08:03:11;;;;;;;1.98;1.85;;;22.10;59.90;;;;;;5058446;28;20416;-33
2022/06/11 08:05:37;;;;;;;2.50;2.00;;;22.00;64.60;;;;;;5055415;28;20047;-32
2022/06/11 08:08:07;;;;;;;2.13;1.92;;;22.30;66.10;;;;;;5060201;28;20032;-32
2022/06/11 08:10:33;;;;;;;2.35;2.10;;;22.40;61.90;;;;;;5060603;28;20028;-32
2022/06/11 08:12:59;;;;;;;1.98;1.83;;;22.50;62.80;;;;;;5063620;28;20093;-32
2022/06/11 08:15:25;;;;;;;3.20;1.90;;;22.10;58.00;;;;;;5066915;28;20032;-32
2022/06/11 08:17:51;;;;;;;3.47;2.17;;;21.80;61.30;;;;;;5067605;28;20074;-33
2022/06/11 08:20:22;;;;;;;2.92;2.10;;;21.40;63.80;;;;;;5065988;28;20037;-32
2022/06/11 08:22:48;;;;;;;1.88;1.75;;;21.80;59.00;;;;;;5068556;28;20028;-32
2022/06/11 08:25:13;;;;;;;2.78;2.10;;;22.20;60.00;;;;;;5069858;28;20473;-31
2022/06/11 08:27:39;;;;;;;4.00;2.05;;;22.60;64.30;;;;;;5059685;28;20031;-32
2022/06/11 08:30:06;;;;;;;2.38;2.00;;;23.00;61.80;;;;;;5070506;28;20086;-33
2022/06/11 08:32:31;;;;;;;2.30;1.90;;;22.90;59.10;;;;;;5064045;28;20024;-32
2022/06/11 08:34:57;;;;;;;2.40;2.20;;;23.10;59.70;;;;;;5076009;28;20028;-32
2022/06/11 08:37:23;;;;;;;2.90;1.80;;;23.00;59.40;;;;;;5068376;28;20389;-33
2022/06/11 08:39:49;;;;;;;2.00;1.90;;;23.10;61.60;;;;;;5067712;28;20066;-32
2022/06/11 08:42:36;;;;;;;2.45;1.92;;;23.30;60.90;;;;;;5068561;28;20028;-33
2022/06/11 08:45:23;;;;;;;5.05;2.25;;;23.40;58.80;;;;;;5066649;28;20448;-32
2022/06/11 08:47:50;;;;;;;;;;;23.60;56.00;;;;;;5063414;28;20025;-32
2022/06/11 08:50:26;;;;;;;2.58;2.03;;;23.70;62.30;;;;;;5071363;28;19915;-32
2022/06/11 08:52:52;;;;;;;3.78;2.25;;;23.20;65.30;;;;;;5065738;28;20119;-32
2022/06/11 08:55:21;;;;;;;2.85;2.10;;;22.90;68.00;;;;;;5070362;28;20099;-32
2022/06/11 08:57:51;;;;;;;2.80;2.22;;;22.90;67.20;;;;;;5064820;28;20032;-32
2022/06/11 09:00:28;;;;;;;2.42;2.22;;;23.10;67.30;;;;;;5069747;28;20039;-32
2022/06/11 09:03:12;;;;;;;2.42;2.08;;;23.60;62.40;;;;;;5044630;28;20045;-32
2022/06/11 09:05:57;;;;;;;2.95;2.05;;;24.30;60.40;;;;;;5047817;28;20032;-32
2022/06/11 09:08:48;;;;;;;2.20;1.92;;;24.60;58.10;;;;;;5037604;28;20032;-33
2022/06/11 09:11:16;;;;;;;2.40;1.85;;;24.40;66.30;;;;;;5045789;28;20028;-33
2022/06/11 09:14:20;;;;;;;2.08;1.90;;;24.60;55.90;;;;;;5045656;28;20021;-32
2022/06/11 09:16:52;;;;;;;1.65;1.55;;;24.90;56.50;;;;;;5022130;28;20045;-33
2022/06/11 09:19:39;;;;;;;1.95;1.80;;;24.90;57.00;;;;;;5046046;28;20037;-32
2022/06/11 09:22:34;;;;;;;1.80;1.60;;;25.40;53.80;;;;;;5051019;28;20040;-33
2022/06/11 09:25:23;;;;;;;1.90;1.75;;;25.20;50.00;;;;;;5048156;28;20051;-33
2022/06/11 09:28:00;;;;;;;1.85;1.70;;;24.10;49.70;;;;;;5045263;28;20399;-32
2022/06/11 09:30:54;;;;;;;4.93;1.95;;;23.20;55.60;;;;;;5044344;28;20065;-32
2022/06/11 09:33:25;;;;;;;2.55;2.17;;;23.40;64.60;;;;;;5052314;28;20024;-32
2022/06/11 09:36:02;;;;;;;2.53;1.75;;;23.80;57.70;;;;;;5047595;28;20081;-32
2022/06/11 09:38:35;;;;;;;2.10;1.85;;;23.80;51.40;;;;;;5047369;28;20040;-32
2022/06/11 09:41:04;;;;;;;2.13;1.92;;;23.50;50.20;;;;;;5056711;28;20052;-34
2022/06/11 09:43:33;;;;;;;3.47;2.00;;;23.10;53.40;;;;;;5053117;28;20025;-34
2022/06/11 09:46:21;;;;;;;3.63;1.90;;;23.40;54.20;;;;;;5059062;28;20553;-32
2022/06/11 09:49:14;;;;;;;4.28;2.15;;;24.10;55.90;;;;;;5050115;28;20037;-32
2022/06/11 09:51:42;;;;;;;2.00;1.80;;;23.60;50.50;;;;;;5028071;28;20402;-32
2022/06/11 09:54:32;;;;;;;2.17;1.90;;;23.10;54.10;;;;;;5048704;28;20529;-33
2022/06/11 09:57:35;;;;;;;2.00;1.80;;;22.70;52.90;;;;;;5045503;28;20025;-33
2022/06/11 10:00:35;;;;;;;2.13;1.92;;;22.40;51.40;;;;;;5045871;28;20044;-32
2022/06/11 10:03:20;;;;;;;1.75;1.60;;;22.70;59.70;;;;;;5034420;28;20529;-33
2022/06/11 10:06:00;;;;;;;1.80;1.70;;;23.00;51.90;;;;;;5047479;28;20053;-32
2022/06/11 10:08:52;;;;;;;2.10;1.75;;;23.80;55.70;;;;;;5042908;28;20101;-32
2022/06/11 10:11:28;;;;;;;1.95;1.80;;;24.30;56.60;;;;;;5046641;28;20025;-32
2022/06/11 10:17:12;;;;;;;1.60;1.50;;;24.80;48.30;;;;;;5056775;28;20040;-33
2022/06/11 10:19:53;;;;;;;2.05;1.77;;;24.60;52.90;;;;;;5039353;28;20072;-32
2022/06/11 10:22:20;;;;;;;1.70;1.60;;;24.40;49.10;;;;;;5049468;28;20124;-33
2022/06/11 10:24:56;;;;;;;2.55;1.60;;;24.00;48.10;;;;;;5059427;28;20041;-32
2022/06/11 10:27:26;;;;;;;2.65;1.50;;;23.90;48.30;;;;;;5054783;28;20066;-32
2022/06/11 10:29:59;;;;;;;4.22;1.90;;;24.10;52.10;;;;;;5049984;28;20074;-33
2022/06/11 10:32:35;;;;;;;2.03;1.55;;;24.10;49.20;;;;;;5067580;28;20500;-33
2022/06/11 10:35:13;;;;;;;1.83;1.67;;;23.70;52.30;;;;;;5066445;28;20024;-33
2022/06/11 10:37:45;;;;;;;2.28;1.90;;;23.50;50.90;;;;;;5071512;28;20282;-32
2022/06/11 10:40:26;;;;;;;2.88;1.95;;;23.10;49.40;;;;;;5065447;28;20048;-32
2022/06/11 10:43:11;;;;;;;2.28;1.80;;;22.80;55.10;;;;;;5058604;28;20489;-32
2022/06/11 10:45:37;;;;;;;2.60;1.60;;;22.60;55.50;;;;;;5071383;28;20020;-32
2022/06/11 10:48:14;;;;;;;2.00;1.80;;;22.70;57.80;;;;;;5075193;28;20049;-32
2022/06/11 10:50:40;;;;;;;4.17;2.20;;;22.70;50.00;;;;;;5074753;28;20039;-32
2022/06/11 10:53:16;;;;;;;2.50;1.75;;;22.60;50.60;;;;;;5065462;28;20020;-32
2022/06/11 10:55:53;;;;;;;3.75;1.90;;;22.40;49.60;;;;;;5084212;28;20122;-32
2022/06/11 10:58:46;;;;;;;4.90;1.90;;;22.40;49.60;;;;;;5066718;28;20033;-32
2022/06/11 11:01:27;;;;;;;3.17;1.65;;;22.50;51.20;;;;;;5067207;28;20454;-32
2022/06/11 11:04:13;;;;;;;4.32;1.98;;;22.80;53.90;;;;;;5063205;28;20393;-32
2022/06/11 11:06:41;;;;;;;4.88;1.92;;;23.20;50.50;;;;;;5070213;28;20032;-32
2022/06/11 11:09:10;;;;;;;;;;;23.70;53.20;;;;;;4802014;28;20075;-32
2022/06/11 11:11:43;;;;;;;3.05;1.73;;;23.80;50.50;;;;;;5064093;28;20296;-32
2022/06/11 11:14:26;;;;;;;2.65;1.67;;;23.60;54.40;;;;;;5070915;28;20114;-32
2022/06/11 11:16:52;;;;;;;2.28;1.90;;;23.10;49.40;;;;;;5074901;28;20032;-32
2022/06/11 11:20:32;;;;;;;1.52;1.42;;;23.00;47.20;;;;;;5062747;28;20413;-30
2022/06/11 11:23:09;;;;;;;2.35;1.80;;;22.80;46.80;;;;;;5065685;28;20754;-30
2022/06/11 11:25:40;;;;;;;1.80;1.70;;;23.00;51.90;;;;;;5065189;28;20055;-30
2022/06/11 11:28:16;;;;;;;2.53;1.83;;;23.10;49.50;;;;;;5059946;28;20094;-31
2022/06/11 11:30:43;;;;;;;10.77;2.63;;;23.10;48.10;;;;;;5064107;27;20124;-31
2022/06/11 11:33:21;;;;;;;1.85;1.50;;;23.10;47.70;;;;;;5069799;28;20032;-30
2022/06/11 11:35:47;;;;;;;3.28;1.80;;;23.30;53.10;;;;;;5065740;28;20063;-31
2022/06/11 11:38:21;;;;;;;2.53;1.58;;;23.30;48.20;;;;;;5067242;28;20025;-30
2022/06/11 11:40:56;;;;;;;1.70;1.60;;;23.20;46.20;;;;;;5063597;28;20446;-31
2022/06/11 11:43:25;;;;;;;1.70;1.50;;;23.00;48.50;;;;;;5064151;28;20029;-30
2022/06/11 11:46:00;;;;;;;3.92;2.17;;;23.20;49.50;;;;;;5064959;28;20037;-30
2022/06/11 11:48:29;;;;;;;1.88;1.77;;;23.10;45.80;;;;;;5066116;28;20150;-30
2022/06/11 11:51:00;;;;;;;2.13;1.73;;;23.00;48.70;;;;;;5065934;28;20085;-30
2022/06/11 11:53:30;;;;;;;2.28;1.70;;;23.20;46.40;;;;;;5066447;28;20039;-30
2022/06/11 11:56:55;;;;;;;5.78;2.03;;;23.50;46.10;;;;;;5114745;27;20443;-32
2022/06/11 11:59:31;;;;;;;2.72;1.55;;;23.80;47.90;;;;;;5112758;28;20483;-33
2022/06/11 12:02:11;;;;;;;2.00;1.80;;;23.90;48.70;;;;;;5100372;27;20036;-33
2022/06/11 12:04:53;;;;;;;3.35;2.13;;;24.00;51.40;;;;;;5105030;28;20476;-30
2022/06/11 12:07:33;;;;;;;2.25;1.67;;;24.10;48.30;;;;;;5095219;28;20031;-31
2022/06/11 12:10:28;;;;;;;1.52;1.42;;;24.20;51.80;;;;;;5092670;28;20043;-31
2022/06/11 12:12:55;;;;;;;2.25;1.50;;;24.40;51.20;;;;;;5093585;28;20047;-30
2022/06/11 12:15:26;;;;;;;1.67;1.48;;;24.50;52.10;;;;;;5097901;28;20091;-30
2022/06/11 12:18:21;;;;;;;2.10;1.63;;;24.40;46.70;;;;;;5100255;28;20158;-30
2022/06/11 12:20:54;;;;;;;2.58;1.70;;;24.40;50.30;;;;;;5096891;28;20036;-30
2022/06/11 12:23:35;;;;;;;1.63;1.52;;;24.30;49.80;;;;;;5098091;28;20372;-31
2022/06/11 12:26:13;;;;;;;1.70;1.60;;;24.30;46.60;;;;;;5097952;27;20040;-30
2022/06/11 12:28:52;;;;;;;10.60;2.75;;;24.40;48.20;;;;;;5099229;28;20030;-30
2022/06/11 12:31:19;;;;;;;6.85;2.30;;;24.50;49.40;;;;;;5096778;27;20039;-30
2022/06/11 12:33:46;;;;;;;8.40;2.38;;;24.60;47.80;;;;;;5098132;28;20027;-30
2022/06/11 12:36:25;;;;;;;1.95;1.60;;;24.60;47.40;;;;;;5098093;28;20042;-30
2022/06/11 12:38:58;;;;;;;1.60;1.50;;;24.30;44.20;;;;;;5099885;28;20755;-32
2022/06/11 12:41:39;;;;;;;1.60;1.50;;;24.60;42.80;;;;;;5099072;28;20039;-32
2022/06/11 12:44:31;;;;;;;1.88;1.60;;;24.50;45.20;;;;;;5098183;27;20168;-33
2022/06/11 12:47:27;;;;;;;1.60;1.50;;;24.40;45.70;;;;;;5099395;28;20024;-32
2022/06/11 12:50:02;;;;;;;1.83;1.45;;;24.30;44.20;;;;;;5098339;28;20032;-32
2022/06/11 12:52:27;;;;;;;2.15;1.50;;;24.40;43.40;;;;;;5091014;28;20073;-30
2022/06/11 12:55:38;;;;;;;1.50;1.40;;;24.40;46.40;;;;;;5100995;28;20047;-30
2022/06/11 12:58:26;;;;;;;1.60;1.50;;;24.30;43.10;;;;;;5095154;28;20890;-30
2022/06/11 13:01:24;;;;;;;1.40;1.30;;;24.50;46.30;;;;;;5098034;27;20069;-31
2022/06/11 13:04:23;;;;;;;2.20;1.70;;;24.50;44.40;;;;;;5091092;28;20506;-30
2022/06/11 13:06:55;;;;;;;1.52;1.42;;;24.60;43.20;;;;;;5092032;28;20547;-30
2022/06/11 13:09:51;;;;;;;4.18;1.70;;;24.50;43.00;;;;;;5085277;28;20035;-30
2022/06/11 13:12:30;;;;;;;2.85;1.75;;;24.60;43.20;;;;;;5077826;28;20028;-30
2022/06/11 13:14:59;;;;;;;1.42;1.33;;;24.70;44.40;;;;;;5084434;28;20032;-30
2022/06/11 13:17:37;;;;;;;1.70;1.60;;;24.60;41.20;;;;;;5083160;28;20078;-30
2022/06/11 13:20:31;;;;;;;1.80;1.70;;;24.60;43.60;;;;;;5085624;27;20453;-32